createdAt,value
2023-04-09T00:01:44.058Z,11.45
2023-04-09T00:04:27.235Z,11.80
2023-04-09T00:07:06.556Z,11.60
2023-04-09T00:09:39.157Z,12.27
2023-04-09T00:12:09.699Z,12.02
2023-04-09T00:14:51.562Z,12.60
2023-04-09T00:17:24.998Z,10.07
2023-04-09T00:19:54.438Z,11.48
2023-04-09T00:22:25.270Z,11.60
2023-04-09T00:24:59.782Z,11.95
2023-04-09T00:27:31.678Z,11.70
2023-04-09T00:30:02.875Z,12.32
2023-04-09T00:32:41.501Z,11.98
2023-04-09T00:35:18.635Z,14.20
2023-04-09T00:37:52.781Z,17.98
2023-04-09T00:43:01.310Z,13.02
2023-04-09T00:45:30.660Z,12.13
2023-04-09T00:48:05.091Z,14.23
2023-04-09T00:50:39.075Z,14.63
2023-04-09T00:53:11.441Z,15.55
2023-04-09T00:55:42.810Z,14.52
2023-04-09T00:58:14.561Z,14.52
2023-04-09T01:00:44.642Z,15.98
2023-04-09T01:03:17.366Z,13.43
2023-04-09T01:05:55.704Z,12.47
2023-04-09T01:08:39.716Z,12.65
2023-04-09T01:11:17.140Z,12.00
2023-04-09T01:13:57.616Z,12.25
2023-04-09T01:16:34.291Z,11.98
2023-04-09T01:19:08.472Z,13.15
2023-04-09T01:21:51.378Z,12.75
2023-04-09T01:24:34.907Z,12.30
2023-04-09T01:27:08.178Z,12.60
2023-04-09T01:29:44.263Z,12.43
2023-04-09T01:32:20.278Z,12.35
2023-04-09T01:35:07.111Z,13.43
2023-04-09T01:37:37.080Z,13.23
2023-04-09T01:40:18.142Z,14.00
2023-04-09T01:43:00.315Z,12.18
2023-04-09T01:45:31.051Z,13.00
2023-04-09T01:48:08.543Z,11.90
2023-04-09T01:50:40.867Z,13.05
2023-04-09T01:53:12.325Z,12.50
2023-04-09T01:55:46.677Z,13.13
2023-04-09T01:58:15.835Z,12.27
2023-04-09T02:01:14.676Z,11.50
2023-04-09T02:03:51.826Z,11.80
2023-04-09T02:06:42.600Z,13.32
2023-04-09T02:09:15.081Z,13.68
2023-04-09T02:11:53.190Z,13.57
2023-04-09T02:14:23.121Z,14.45
2023-04-09T02:16:59.908Z,14.68
2023-04-09T02:19:40.633Z,13.40
2023-04-09T02:22:12.174Z,13.32
2023-04-09T02:24:46.110Z,12.85
2023-04-09T02:27:18.122Z,13.45
2023-04-09T02:29:52.179Z,13.50
2023-04-09T02:32:22.824Z,13.65
2023-04-09T02:34:51.763Z,14.77
2023-04-09T02:37:20.607Z,14.07
2023-04-09T02:39:52.686Z,14.02
2023-04-09T02:42:25.801Z,13.45
2023-04-09T02:44:56.577Z,13.88
2023-04-09T02:47:27.690Z,14.93
2023-04-09T02:49:57.928Z,14.25
2023-04-09T02:52:26.950Z,13.20
2023-04-09T02:55:04.064Z,13.77
2023-04-09T02:57:36.730Z,14.02
2023-04-09T03:00:06.138Z,14.68
2023-04-09T03:02:36.626Z,14.18
2023-04-09T03:05:10.551Z,14.73
2023-04-09T03:10:13.576Z,13.80
2023-04-09T03:12:50.812Z,15.43
2023-04-09T03:15:21.767Z,13.80
2023-04-09T03:17:57.786Z,14.07
2023-04-09T03:20:27.278Z,15.10
2023-04-09T03:22:58.533Z,14.77
2023-04-09T03:25:33.825Z,15.13
2023-04-09T03:28:12.087Z,14.98
2023-04-09T03:30:50.263Z,14.70
2023-04-09T03:33:35.971Z,15.18
2023-04-09T03:36:09.968Z,15.57
2023-04-09T03:38:39.176Z,14.23
2023-04-09T03:41:13.771Z,15.02
2023-04-09T03:43:45.770Z,15.30
2023-04-09T03:46:16.685Z,14.32
2023-04-09T03:48:51.207Z,15.10
2023-04-09T03:51:23.144Z,15.25
2023-04-09T03:53:52.328Z,14.70
2023-04-09T03:56:21.367Z,14.65
2023-04-09T03:58:51.065Z,15.35
2023-04-09T04:01:32.363Z,14.60
2023-04-09T04:04:01.534Z,14.07
2023-04-09T04:06:32.159Z,15.10
2023-04-09T04:09:02.239Z,14.88
2023-04-09T04:11:31.229Z,14.85
2023-04-09T04:14:00.430Z,14.23
2023-04-09T04:16:29.462Z,14.30
2023-04-09T04:18:58.304Z,13.65
2023-04-09T04:21:30.645Z,14.32
2023-04-09T04:24:03.241Z,14.30
2023-04-09T04:26:32.268Z,13.87
2023-04-09T04:29:00.987Z,13.45
2023-04-09T04:31:30.002Z,12.10
2023-04-09T04:34:04.752Z,13.00
2023-04-09T04:36:38.691Z,13.27
2023-04-09T04:39:13.302Z,12.45
2023-04-09T04:41:44.738Z,12.35
2023-04-09T04:44:16.886Z,14.15
2023-04-09T04:46:49.760Z,13.35
2023-04-09T04:49:18.952Z,14.00
2023-04-09T04:51:47.806Z,14.48
2023-04-09T04:54:29.975Z,14.27
2023-04-09T04:56:59.103Z,13.88
2023-04-09T04:59:28.110Z,14.38
2023-04-09T05:02:04.859Z,13.23
2023-04-09T05:04:44.249Z,13.70
2023-04-09T05:07:23.403Z,14.30
2023-04-09T05:09:56.189Z,14.18
2023-04-09T05:12:31.441Z,14.30
2023-04-09T05:15:00.694Z,14.93
2023-04-09T05:17:34.437Z,15.57
2023-04-09T05:20:16.749Z,15.85
2023-04-09T05:22:49.172Z,14.98
2023-04-09T05:25:24.058Z,14.25
2023-04-09T05:27:55.216Z,15.85
2023-04-09T05:30:29.437Z,17.65
2023-04-09T05:32:58.552Z,15.75
2023-04-09T05:35:32.558Z,16.77
2023-04-09T05:38:06.895Z,14.80
2023-04-09T05:40:40.478Z,14.40
2023-04-09T05:43:14.468Z,14.07
2023-04-09T05:45:43.815Z,16.05
2023-04-09T05:48:14.951Z,15.95
2023-04-09T05:50:55.006Z,15.95
2023-04-09T05:53:30.404Z,14.73
2023-04-09T05:56:03.053Z,13.07
2023-04-09T05:58:36.166Z,13.73
2023-04-09T06:01:14.078Z,14.65
2023-04-09T06:03:52.851Z,15.85
2023-04-09T06:06:38.991Z,15.55
2023-04-09T06:09:15.655Z,15.13
2023-04-09T06:11:52.717Z,15.45
2023-04-09T06:14:24.940Z,15.75
2023-04-09T06:16:56.562Z,15.40
2023-04-09T06:19:33.600Z,15.98
2023-04-09T06:22:14.450Z,16.38
2023-04-09T06:24:56.312Z,14.90
2023-04-09T06:27:40.596Z,15.38
2023-04-09T06:30:22.822Z,16.00
2023-04-09T06:33:06.667Z,16.55
2023-04-09T06:35:40.707Z,15.43
2023-04-09T06:38:13.176Z,15.25
2023-04-09T06:40:51.156Z,14.45
2023-04-09T06:43:37.439Z,14.80
2023-04-09T06:46:18.836Z,13.70
2023-04-09T06:49:01.554Z,14.77
2023-04-09T06:51:41.326Z,14.30
2023-04-09T06:54:26.128Z,13.60
2023-04-09T06:57:14.800Z,13.55
2023-04-09T06:59:56.060Z,13.50
2023-04-09T07:05:42.765Z,14.20
2023-04-09T07:35:53.522Z,12.52
2023-04-09T07:52:11.493Z,11.23
2023-04-09T07:55:51.288Z,11.55
2023-04-09T07:59:10.829Z,11.68
2023-04-09T08:09:29.925Z,11.48
2023-04-09T08:16:07.294Z,11.10
2023-04-09T08:19:12.044Z,11.50
2023-04-09T18:59:27.644Z,6.15
2023-04-09T19:02:28.086Z,6.50
2023-04-09T19:08:21.964Z,14.23
2023-04-09T19:11:25.611Z,8.20
2023-04-09T19:14:12.489Z,9.00
2023-04-09T19:20:22.404Z,9.55
2023-04-09T19:23:26.755Z,9.25
2023-04-09T19:26:42.738Z,9.10
2023-04-09T19:29:23.558Z,9.63
2023-04-09T19:32:26.275Z,10.45
2023-04-09T19:35:40.734Z,9.82
2023-04-09T19:38:58.966Z,8.70
2023-04-09T19:47:26.665Z,7.57
2023-04-09T19:53:05.984Z,7.05
2023-04-09T19:55:57.848Z,7.43
2023-04-09T19:58:53.264Z,7.43
2023-04-09T20:01:33.917Z,6.50
2023-04-09T20:04:12.618Z,5.88
2023-04-09T20:06:52.778Z,6.50
2023-04-09T20:09:30.972Z,7.25
2023-04-09T20:12:08.865Z,7.80
2023-04-09T20:14:54.017Z,8.82
2023-04-09T20:17:48.306Z,9.23
2023-04-09T20:20:27.854Z,8.70
2023-04-09T20:23:03.900Z,7.78
2023-04-09T20:25:44.376Z,7.38
2023-04-09T20:28:23.761Z,8.35
2023-04-09T20:31:08.506Z,6.97
2023-04-09T20:36:23.962Z,7.55
2023-04-09T20:39:22.500Z,6.85
2023-04-09T20:41:53.633Z,7.07
2023-04-09T20:44:33.183Z,6.95
2023-04-09T20:47:04.547Z,7.40
2023-04-09T20:49:38.339Z,6.63
2023-04-09T20:55:03.821Z,6.90
2023-04-09T20:57:35.063Z,6.78
2023-04-09T21:00:06.890Z,7.18
2023-04-09T21:02:48.237Z,6.57
2023-04-09T21:05:24.596Z,6.72
2023-04-09T21:07:55.975Z,7.00
2023-04-09T21:10:27.437Z,7.00
2023-04-09T21:12:58.242Z,6.75
2023-04-09T21:15:34.380Z,7.57
2023-04-09T21:18:04.221Z,7.05
2023-04-09T21:20:56.918Z,6.88
2023-04-09T21:23:28.970Z,6.25
2023-04-09T21:26:13.725Z,6.80
2023-04-09T21:35:24.279Z,7.07
2023-04-09T21:37:52.946Z,7.93
2023-04-09T21:40:28.927Z,7.25
2023-04-09T21:45:52.251Z,6.50
2023-04-09T21:54:34.603Z,6.53
2023-04-09T21:57:07.172Z,7.13
2023-04-09T22:00:09.868Z,7.18
2023-04-09T22:02:40.450Z,6.78
2023-04-09T22:05:12.009Z,7.45
2023-04-09T22:07:42.531Z,8.43
2023-04-09T22:10:11.840Z,8.95
2023-04-09T22:12:43.492Z,8.35
2023-04-09T22:15:13.601Z,8.55
2023-04-09T22:17:44.587Z,9.32
2023-04-09T22:20:13.308Z,8.20
2023-04-09T22:22:42.935Z,8.75
2023-04-09T22:25:12.695Z,8.07
2023-04-09T22:27:41.770Z,8.38
2023-04-09T22:30:10.943Z,7.80
2023-04-09T22:32:44.526Z,8.02
2023-04-09T22:35:18.777Z,7.95
2023-04-09T22:37:48.920Z,7.55
2023-04-09T22:40:18.061Z,7.97
2023-04-09T22:42:50.256Z,8.02
2023-04-09T22:45:19.208Z,8.18
2023-04-09T22:47:50.235Z,8.73
2023-04-09T22:50:21.475Z,8.80
2023-04-09T22:52:53.489Z,9.38
2023-04-09T22:55:23.465Z,10.27
2023-04-09T22:57:52.356Z,10.23
2023-04-09T23:00:21.136Z,11.13
2023-04-09T23:02:54.517Z,10.57
2023-04-09T23:05:25.102Z,12.45
2023-04-09T23:07:57.987Z,11.32
2023-04-09T23:10:29.969Z,11.27
2023-04-09T23:12:58.747Z,11.23
2023-04-09T23:15:27.504Z,11.07
2023-04-09T23:17:59.436Z,11.20
2023-04-09T23:20:48.061Z,13.70
2023-04-09T23:23:17.000Z,10.65
2023-04-09T23:25:45.837Z,10.20
2023-04-09T23:28:14.789Z,10.23
2023-04-09T23:30:45.869Z,10.45
2023-04-09T23:33:14.619Z,10.02
2023-04-09T23:35:49.124Z,10.68
2023-04-09T23:38:18.109Z,8.75
2023-04-09T23:40:47.490Z,9.85
2023-04-09T23:43:17.362Z,10.73
2023-04-09T23:45:46.979Z,10.73
2023-04-09T23:48:16.325Z,8.80
2023-04-09T23:50:48.786Z,8.38
2023-04-09T23:53:21.518Z,8.05
2023-04-09T23:55:53.866Z,8.32
2023-04-09T23:58:27.117Z,7.72
